createdAt,value
2018-08-04T00:01:43.472Z,20.30
2018-08-04T00:04:11.956Z,20.30
2018-08-04T00:06:40.445Z,20.20
2018-08-04T00:09:11.280Z,20.20
2018-08-04T00:11:40.036Z,20.20
2018-08-04T00:14:08.591Z,20.30
2018-08-04T00:16:37.268Z,20.30
2018-08-04T00:19:06.293Z,20.30
2018-08-04T00:21:34.868Z,20.30
2018-08-04T00:24:03.362Z,20.30
2018-08-04T00:26:32.867Z,20.20
2018-08-04T00:29:02.492Z,20.20
2018-08-04T00:31:32.382Z,20.20
2018-08-04T00:34:00.804Z,20.20
2018-08-04T00:36:29.635Z,20.20
2018-08-04T00:38:58.183Z,20.10
2018-08-04T00:41:26.820Z,20.10
2018-08-04T00:43:55.255Z,20.00
2018-08-04T00:46:23.895Z,20.00
2018-08-04T00:48:52.608Z,20.00
2018-08-04T00:51:21.176Z,19.90
2018-08-04T00:53:49.523Z,19.90
2018-08-04T00:56:18.200Z,19.80
2018-08-04T00:58:46.633Z,19.80
2018-08-04T01:01:15.640Z,19.80
2018-08-04T01:03:44.017Z,19.80
2018-08-04T01:06:12.332Z,19.70
2018-08-04T01:08:40.723Z,19.70
2018-08-04T01:13:37.528Z,19.60
2018-08-04T01:16:06.132Z,19.60
2018-08-04T01:18:34.720Z,19.60
2018-08-04T01:21:03.019Z,19.60
2018-08-04T01:23:31.596Z,19.60
2018-08-04T01:26:00.041Z,19.50
2018-08-04T01:28:28.872Z,19.50
2018-08-04T01:30:57.260Z,19.50
2018-08-04T01:33:25.700Z,19.50
2018-08-04T01:35:54.008Z,19.50
2018-08-04T01:38:22.619Z,19.40
2018-08-04T01:40:51.232Z,19.40
2018-08-04T01:43:19.616Z,19.40
2018-08-04T01:45:48.040Z,19.40
2018-08-04T01:48:16.682Z,19.30
2018-08-04T01:50:45.136Z,19.30
2018-08-04T01:53:13.759Z,19.30
2018-08-04T01:55:42.150Z,19.30
2018-08-04T01:58:10.704Z,19.20
2018-08-04T02:00:39.062Z,19.20
2018-08-04T02:03:07.668Z,19.20
2018-08-04T02:05:42.679Z,19.20
2018-08-04T02:08:10.970Z,19.20
2018-08-04T02:10:39.524Z,19.20
2018-08-04T02:13:08.072Z,19.10
2018-08-04T02:15:36.588Z,19.10
2018-08-04T02:18:05.240Z,19.10
2018-08-04T02:20:33.886Z,19.10
2018-08-04T02:23:02.405Z,19.00
2018-08-04T02:25:30.848Z,19.00
2018-08-04T02:27:59.272Z,19.00
2018-08-04T02:30:27.820Z,19.00
2018-08-04T02:32:56.263Z,19.00
2018-08-04T02:35:24.680Z,18.90
2018-08-04T02:37:53.249Z,18.90
2018-08-04T02:40:21.788Z,18.90
2018-08-04T02:42:50.260Z,18.90
2018-08-04T02:45:18.788Z,18.80
2018-08-04T02:47:47.819Z,18.80
2018-08-04T02:50:16.294Z,18.80
2018-08-04T02:52:45.052Z,18.80
2018-08-04T02:55:13.910Z,18.80
2018-08-04T02:57:42.429Z,18.70
2018-08-04T03:00:10.820Z,18.70
2018-08-04T03:05:08.480Z,18.60
2018-08-04T03:07:37.053Z,18.60
2018-08-04T03:10:06.297Z,18.60
2018-08-04T03:12:34.825Z,18.60
2018-08-04T03:15:03.355Z,18.50
2018-08-04T03:17:31.693Z,18.50
2018-08-04T03:20:00.296Z,18.50
2018-08-04T03:22:28.632Z,18.50
2018-08-04T03:24:57.079Z,18.50
2018-08-04T03:27:25.319Z,18.40
2018-08-04T03:29:53.540Z,18.40
2018-08-04T03:32:21.944Z,18.40
2018-08-04T03:34:50.368Z,18.40
2018-08-04T03:37:18.680Z,18.40
2018-08-04T03:39:47.072Z,18.40
2018-08-04T03:42:15.392Z,18.40
2018-08-04T03:44:43.652Z,18.40
2018-08-04T03:47:11.916Z,18.40
2018-08-04T03:49:40.207Z,18.30
2018-08-04T03:52:08.946Z,18.30
2018-08-04T03:54:37.257Z,18.30
2018-08-04T03:57:06.564Z,18.30
2018-08-04T03:59:34.815Z,18.30
2018-08-04T04:02:03.132Z,18.30
2018-08-04T04:04:31.560Z,18.30
2018-08-04T04:06:59.806Z,18.30
2018-08-04T04:09:28.233Z,18.20
2018-08-04T04:11:56.476Z,18.20
2018-08-04T04:14:24.788Z,18.20
2018-08-04T04:16:53.253Z,18.20
2018-08-04T04:19:21.532Z,18.20
2018-08-04T04:21:50.666Z,18.20
2018-08-04T04:24:18.916Z,18.20
2018-08-04T04:26:47.208Z,18.20
2018-08-04T04:29:15.483Z,18.30
2018-08-04T04:31:43.722Z,18.30
2018-08-04T04:34:12.014Z,18.30
2018-08-04T04:36:40.283Z,18.40
2018-08-04T04:39:09.932Z,18.40
2018-08-04T04:41:38.628Z,18.40
2018-08-04T04:44:06.974Z,18.50
2018-08-04T04:46:38.685Z,18.50
2018-08-04T04:49:08.936Z,18.50
2018-08-04T04:51:37.256Z,18.50
2018-08-04T04:54:05.844Z,18.60
2018-08-04T04:56:34.552Z,18.60
2018-08-04T04:59:03.028Z,18.60
2018-08-04T05:01:31.346Z,18.70
2018-08-04T05:03:59.648Z,18.80
2018-08-04T05:06:28.040Z,18.90
2018-08-04T05:08:56.400Z,18.90
2018-08-04T05:11:24.708Z,19.00
2018-08-04T05:13:52.972Z,19.10
2018-08-04T05:16:21.332Z,19.10
2018-08-04T05:18:49.539Z,19.20
2018-08-04T05:21:17.881Z,19.30
2018-08-04T05:23:46.266Z,19.40
2018-08-04T05:26:14.720Z,19.50
2018-08-04T05:28:42.958Z,19.60
2018-08-04T05:31:11.268Z,19.70
2018-08-04T05:33:39.534Z,19.70
2018-08-04T05:36:07.816Z,19.70
2018-08-04T05:38:36.232Z,19.70
2018-08-04T05:41:04.769Z,19.80
2018-08-04T05:43:33.122Z,19.80
2018-08-04T05:46:01.313Z,19.90
2018-08-04T05:48:29.619Z,19.90
2018-08-04T05:50:58.448Z,20.10
2018-08-04T05:53:26.744Z,20.20
2018-08-04T05:55:55.016Z,20.30
2018-08-04T05:58:23.380Z,20.40
2018-08-04T06:00:51.752Z,20.50
2018-08-04T06:03:20.023Z,20.50
2018-08-04T06:05:48.372Z,20.60
2018-08-04T06:08:16.771Z,20.70
2018-08-04T06:10:45.078Z,20.80
2018-08-04T06:13:13.336Z,21.00
2018-08-04T06:15:41.599Z,21.10
2018-08-04T06:18:09.947Z,21.30
2018-08-04T06:20:38.156Z,21.50
2018-08-04T06:23:06.744Z,21.70
2018-08-04T06:25:34.952Z,21.80
2018-08-04T06:28:03.187Z,21.90
2018-08-04T06:30:31.479Z,22.10
2018-08-04T06:32:59.773Z,22.20
2018-08-04T06:35:28.016Z,22.30
2018-08-04T06:37:56.464Z,22.40
2018-08-04T06:40:25.001Z,22.50
2018-08-04T06:42:53.456Z,22.50
2018-08-04T06:45:21.900Z,22.60
2018-08-04T06:47:50.268Z,22.60
2018-08-04T06:50:18.765Z,22.60
2018-08-04T06:52:47.084Z,22.70
2018-08-04T06:55:15.342Z,22.70
2018-08-04T06:57:43.608Z,22.80
2018-08-04T07:00:12.010Z,22.80
2018-08-04T07:02:40.342Z,22.90
2018-08-04T07:05:08.617Z,23.00
2018-08-04T07:07:36.807Z,23.10
2018-08-04T07:10:05.225Z,23.20
2018-08-04T07:12:33.748Z,23.30
2018-08-04T07:15:02.164Z,23.50
2018-08-04T07:17:30.468Z,23.60
2018-08-04T07:19:58.751Z,23.70
2018-08-04T07:22:26.968Z,23.80
2018-08-04T07:24:55.243Z,23.90
2018-08-04T07:27:23.479Z,24.10
2018-08-04T07:29:51.809Z,24.30
2018-08-04T07:32:20.113Z,24.40
2018-08-04T07:34:48.380Z,24.60
2018-08-04T07:37:16.627Z,24.70
2018-08-04T07:39:44.852Z,24.80
2018-08-04T07:42:13.074Z,24.90
2018-08-04T07:44:41.263Z,25.00
2018-08-04T07:47:09.616Z,25.20
2018-08-04T07:49:37.824Z,25.30
2018-08-04T07:52:06.582Z,25.40
2018-08-04T07:54:34.832Z,25.60
2018-08-04T07:57:03.048Z,25.70
2018-08-04T07:59:31.474Z,25.90
2018-08-04T08:01:59.843Z,26.00
2018-08-04T08:04:28.161Z,26.10
2018-08-04T08:06:56.378Z,26.20
2018-08-04T08:09:24.626Z,26.30
2018-08-04T08:11:52.904Z,26.40
2018-08-04T08:14:21.136Z,26.40
2018-08-04T08:16:49.458Z,26.50
2018-08-04T08:19:17.694Z,26.60
2018-08-04T08:21:46.044Z,26.60
2018-08-04T08:24:14.296Z,26.70
2018-08-04T08:26:42.536Z,26.80
2018-08-04T08:29:11.160Z,26.90
2018-08-04T08:31:39.465Z,27.00
2018-08-04T08:34:07.678Z,27.20
2018-08-04T08:36:35.886Z,27.30
2018-08-04T08:39:05.557Z,27.30
2018-08-04T08:44:01.782Z,27.60
2018-08-04T08:46:30.041Z,27.70
2018-08-04T08:48:58.275Z,27.80
2018-08-04T08:51:26.964Z,27.90
2018-08-04T08:53:55.279Z,28.10
2018-08-04T08:56:23.539Z,28.20
2018-08-04T08:58:51.933Z,28.40
2018-08-04T09:01:20.214Z,28.50
2018-08-04T09:03:48.505Z,28.60
2018-08-04T09:06:16.826Z,28.70
2018-08-04T09:08:45.206Z,28.80
2018-08-04T09:13:41.960Z,29.10
2018-08-04T09:16:10.464Z,29.20
2018-08-04T09:18:38.719Z,29.30
2018-08-04T09:21:06.973Z,29.40
2018-08-04T09:23:35.245Z,29.50
2018-08-04T09:26:03.551Z,29.60
2018-08-04T09:28:31.848Z,29.70
2018-08-04T09:31:00.174Z,29.70
2018-08-04T09:33:28.559Z,29.90
2018-08-04T09:35:57.361Z,30.00
2018-08-04T09:38:26.292Z,30.00
2018-08-04T09:40:54.563Z,30.00
2018-08-04T09:43:22.772Z,30.00
2018-08-04T09:45:51.012Z,30.10
2018-08-04T09:48:19.706Z,30.20
2018-08-04T09:50:47.923Z,30.30
2018-08-04T09:53:16.143Z,30.40
2018-08-04T09:55:44.376Z,30.40
2018-08-04T09:58:12.616Z,30.40
2018-08-04T10:01:44.574Z,30.40
2018-08-04T10:04:12.813Z,30.50
2018-08-04T10:06:42.801Z,30.60
2018-08-04T10:09:11.709Z,30.70
2018-08-04T10:11:39.952Z,30.80
2018-08-04T10:14:08.287Z,30.80
2018-08-04T10:16:36.523Z,30.90
2018-08-04T10:21:32.832Z,31.10
2018-08-04T10:24:01.063Z,31.10
2018-08-04T10:26:29.331Z,31.20
2018-08-04T10:28:57.558Z,31.30
2018-08-04T10:31:25.817Z,31.40
2018-08-04T10:33:54.127Z,31.40
2018-08-04T10:36:22.383Z,31.40
2018-08-04T10:38:50.636Z,31.50
2018-08-04T10:41:18.948Z,31.50
2018-08-04T10:43:47.215Z,31.60
2018-08-04T10:46:15.513Z,31.70
2018-08-04T10:48:43.766Z,31.80
2018-08-04T10:51:11.981Z,31.90
2018-08-04T10:53:40.207Z,32.00
2018-08-04T10:56:08.479Z,32.00
2018-08-04T10:58:36.701Z,32.00
2018-08-04T11:01:05.943Z,32.10
2018-08-04T11:03:34.171Z,32.20
2018-08-04T11:06:02.424Z,32.20
2018-08-04T11:08:30.695Z,32.30
2018-08-04T11:10:58.938Z,32.40
2018-08-04T11:13:27.185Z,32.60
2018-08-04T11:15:55.518Z,32.80
2018-08-04T11:18:23.736Z,32.90
2018-08-04T11:20:52.231Z,33.00
2018-08-04T11:23:20.518Z,33.00
2018-08-04T11:25:48.744Z,33.00
2018-08-04T11:28:17.339Z,33.00
2018-08-04T11:30:45.608Z,33.00
2018-08-04T11:33:13.766Z,32.90
2018-08-04T11:35:42.021Z,32.90
2018-08-04T11:38:10.320Z,33.00
2018-08-04T11:40:39.974Z,33.00
2018-08-04T11:43:08.584Z,33.00
2018-08-04T11:45:36.931Z,33.00
2018-08-04T11:48:05.578Z,33.10
2018-08-04T11:50:33.828Z,33.10
2018-08-04T11:53:02.380Z,33.20
2018-08-04T11:55:31.345Z,33.20
2018-08-04T11:57:59.702Z,33.20
2018-08-04T12:00:27.989Z,33.10
2018-08-04T12:02:56.253Z,33.00
2018-08-04T12:05:24.524Z,32.90
2018-08-04T12:07:52.739Z,33.00
2018-08-04T12:10:21.256Z,33.00
2018-08-04T12:12:49.692Z,33.00
2018-08-04T12:15:18.010Z,33.00
2018-08-04T12:17:46.273Z,33.00
2018-08-04T12:20:14.828Z,33.00
2018-08-04T12:22:43.052Z,33.10
2018-08-04T12:25:11.269Z,33.10
2018-08-04T12:27:39.528Z,33.10
2018-08-04T12:30:08.657Z,33.20
2018-08-04T12:32:37.150Z,33.20
2018-08-04T12:35:06.123Z,33.30
2018-08-04T12:37:34.730Z,33.30
2018-08-04T12:40:03.261Z,33.40
2018-08-04T12:42:31.547Z,33.50
2018-08-04T12:44:59.786Z,33.60
2018-08-04T12:47:28.029Z,33.60
2018-08-04T12:49:56.244Z,33.70
2018-08-04T12:52:24.543Z,33.80
2018-08-04T12:54:52.820Z,33.90
2018-08-04T12:57:21.499Z,33.90
2018-08-04T12:59:50.557Z,34.00
2018-08-04T13:02:18.748Z,34.00
2018-08-04T13:04:47.208Z,34.10
2018-08-04T13:07:15.401Z,34.20
2018-08-04T13:09:43.672Z,34.20
2018-08-04T13:12:11.895Z,34.20
2018-08-04T13:14:40.163Z,34.30
2018-08-04T13:17:08.408Z,34.30
2018-08-04T13:19:36.686Z,34.30
2018-08-04T13:22:04.977Z,34.40
2018-08-04T13:24:33.160Z,34.50
2018-08-04T13:27:01.436Z,34.60
2018-08-04T13:29:29.657Z,34.70
2018-08-04T13:31:57.980Z,34.90
2018-08-04T13:34:26.224Z,35.10
2018-08-04T13:36:54.498Z,35.30
2018-08-04T13:39:22.813Z,35.60
2018-08-04T13:41:51.066Z,35.80
2018-08-04T13:44:19.293Z,35.90
2018-08-04T13:46:47.604Z,36.00
2018-08-04T13:51:43.805Z,35.90
2018-08-04T13:54:11.999Z,35.70
2018-08-04T13:56:40.228Z,35.40
2018-08-04T13:59:08.475Z,35.10
2018-08-04T14:01:36.695Z,34.80
2018-08-04T14:04:05.066Z,34.70
2018-08-04T14:06:33.288Z,34.70
2018-08-04T14:09:01.933Z,34.70
2018-08-04T14:11:30.156Z,34.80
2018-08-04T14:13:58.376Z,34.90
2018-08-04T14:16:26.648Z,35.00
2018-08-04T14:18:54.879Z,35.10
2018-08-04T14:21:23.075Z,35.20
2018-08-04T14:23:52.048Z,35.30
2018-08-04T14:26:20.256Z,35.40
2018-08-04T14:28:49.105Z,35.50
2018-08-04T14:31:17.316Z,35.60
2018-08-04T14:33:45.569Z,35.70
2018-08-04T14:36:13.782Z,35.80
2018-08-04T14:38:42.904Z,36.00
2018-08-04T14:41:11.152Z,36.10
2018-08-04T14:43:39.584Z,36.40
2018-08-04T14:46:08.378Z,36.60
2018-08-04T14:48:36.722Z,36.80
2018-08-04T14:51:05.000Z,37.10
2018-08-04T14:53:33.223Z,37.40
2018-08-04T14:56:01.560Z,37.60
2018-08-04T14:58:29.793Z,37.90
2018-08-04T15:00:58.226Z,38.30
2018-08-04T15:03:26.441Z,38.60
2018-08-04T15:05:54.661Z,38.80
2018-08-04T15:08:22.916Z,39.00
2018-08-04T15:10:51.232Z,39.20
2018-08-04T15:13:19.480Z,39.40
2018-08-04T15:15:48.137Z,39.60
2018-08-04T15:18:16.439Z,39.80
2018-08-04T15:20:44.744Z,39.80
2018-08-04T15:23:13.248Z,39.90
2018-08-04T15:25:41.505Z,39.70
2018-08-04T15:28:09.746Z,39.40
2018-08-04T15:30:37.967Z,39.30
2018-08-04T15:35:34.167Z,39.20
2018-08-04T15:38:02.377Z,38.90
2018-08-04T15:40:30.619Z,38.60
2018-08-04T15:42:59.089Z,38.50
2018-08-04T15:45:27.535Z,38.50
2018-08-04T15:47:55.820Z,38.50
2018-08-04T15:50:24.059Z,38.50
2018-08-04T15:52:52.352Z,38.40
2018-08-04T15:55:20.559Z,38.20
2018-08-04T15:57:48.850Z,37.90
2018-08-04T16:00:17.220Z,37.50
2018-08-04T16:02:45.473Z,37.10
2018-08-04T16:05:13.781Z,37.00
2018-08-04T16:07:42.050Z,37.10
2018-08-04T16:10:10.415Z,37.30
2018-08-04T16:12:38.720Z,37.20
2018-08-04T16:15:07.009Z,37.10
2018-08-04T16:17:35.444Z,37.10
2018-08-04T16:20:05.168Z,37.10
2018-08-04T16:22:33.418Z,37.10
2018-08-04T16:25:01.696Z,37.00
2018-08-04T16:27:29.903Z,37.10
2018-08-04T16:29:58.111Z,37.00
2018-08-04T16:32:26.440Z,36.80
2018-08-04T16:34:55.605Z,36.70
2018-08-04T16:37:23.907Z,36.40
2018-08-04T16:39:52.155Z,36.20
2018-08-04T16:42:20.580Z,36.00
2018-08-04T16:44:49.819Z,35.80
2018-08-04T16:47:18.397Z,35.70
2018-08-04T16:49:48.047Z,35.60
2018-08-04T16:52:16.312Z,35.50
2018-08-04T16:54:45.108Z,35.50
2018-08-04T16:57:14.111Z,35.40
2018-08-04T16:59:42.332Z,35.30
2018-08-04T17:02:10.533Z,35.20
2018-08-04T17:04:38.896Z,35.20
2018-08-04T17:07:07.170Z,35.20
2018-08-04T17:09:36.021Z,35.40
2018-08-04T17:12:04.377Z,35.70
2018-08-04T17:14:33.519Z,35.80
2018-08-04T17:17:01.703Z,35.80
2018-08-04T17:19:29.931Z,35.60
2018-08-04T17:21:58.217Z,35.30
2018-08-04T17:24:26.456Z,35.10
2018-08-04T17:26:54.705Z,34.90
2018-08-04T17:29:23.647Z,34.80
2018-08-04T17:31:52.085Z,34.70
2018-08-04T17:34:20.356Z,34.50
2018-08-04T17:36:48.629Z,34.50
2018-08-04T17:39:16.872Z,34.40
2018-08-04T17:41:45.904Z,34.30
2018-08-04T17:44:14.095Z,34.20
2018-08-04T17:46:42.349Z,34.10
2018-08-04T17:49:10.727Z,34.10
2018-08-04T17:51:39.009Z,34.00
2018-08-04T17:54:07.347Z,34.20
2018-08-04T17:56:36.197Z,34.50
2018-08-04T17:59:04.464Z,34.80
2018-08-04T18:01:32.771Z,35.10
2018-08-04T18:04:01.148Z,35.40
2018-08-04T18:06:29.320Z,35.60
2018-08-04T18:08:58.098Z,35.70
2018-08-04T18:11:26.363Z,35.70
2018-08-04T18:13:54.579Z,35.70
2018-08-04T18:16:22.803Z,35.60
2018-08-04T18:18:51.137Z,35.30
2018-08-04T18:21:19.322Z,35.00
2018-08-04T18:23:47.546Z,34.60
2018-08-04T18:26:15.785Z,34.10
2018-08-04T18:28:44.019Z,33.50
2018-08-04T18:31:12.377Z,33.00
2018-08-04T18:33:40.591Z,32.50
2018-08-04T18:36:08.824Z,32.10
2018-08-04T18:38:37.045Z,31.60
2018-08-04T18:41:05.321Z,31.10
2018-08-04T18:43:33.588Z,30.70
2018-08-04T18:46:01.832Z,30.30
2018-08-04T18:48:30.035Z,29.90
2018-08-04T18:50:58.258Z,29.50
2018-08-04T18:53:26.463Z,29.20
2018-08-04T18:55:54.845Z,28.90
2018-08-04T18:58:23.084Z,28.50
2018-08-04T19:00:51.275Z,28.30
2018-08-04T19:03:19.501Z,28.00
2018-08-04T19:05:47.757Z,27.70
2018-08-04T19:08:15.969Z,27.50
2018-08-04T19:10:44.212Z,27.30
2018-08-04T19:13:12.451Z,27.10
2018-08-04T19:15:40.672Z,26.90
2018-08-04T19:18:08.926Z,26.70
2018-08-04T19:20:37.148Z,26.60
2018-08-04T19:23:05.451Z,26.40
2018-08-04T19:25:33.657Z,26.20
2018-08-04T19:28:01.952Z,26.10
2018-08-04T19:30:30.149Z,26.00
2018-08-04T19:32:58.398Z,25.80
2018-08-04T19:35:26.693Z,25.70
2018-08-04T19:37:54.913Z,25.60
2018-08-04T19:40:23.185Z,25.40
2018-08-04T19:42:51.364Z,25.30
2018-08-04T19:47:47.560Z,25.10
2018-08-04T19:50:15.788Z,25.00
2018-08-04T19:52:44.010Z,24.90
2018-08-04T19:55:12.233Z,24.80
2018-08-04T19:57:40.497Z,24.70
2018-08-04T20:00:08.745Z,24.60
2018-08-04T20:02:36.992Z,24.50
2018-08-04T20:05:05.551Z,24.40
2018-08-04T20:07:33.823Z,24.30
2018-08-04T20:10:02.067Z,24.30
2018-08-04T20:12:30.292Z,24.20
2018-08-04T20:14:58.535Z,24.10
2018-08-04T20:17:26.794Z,24.10
2018-08-04T20:19:55.011Z,23.90
2018-08-04T20:22:23.242Z,23.80
2018-08-04T20:24:51.452Z,23.80
2018-08-04T20:27:19.699Z,23.70
2018-08-04T20:29:48.070Z,23.70
2018-08-04T20:32:16.321Z,23.70
2018-08-04T20:34:44.544Z,23.70
2018-08-04T20:37:13.791Z,23.60
2018-08-04T20:39:42.144Z,23.50
2018-08-04T20:42:10.379Z,23.40
2018-08-04T20:44:38.772Z,23.40
2018-08-04T20:47:06.975Z,23.30
2018-08-04T20:49:35.206Z,23.20
2018-08-04T20:52:03.467Z,23.20
2018-08-04T20:54:31.668Z,23.10
2018-08-04T20:56:59.895Z,23.00
2018-08-04T20:59:28.152Z,23.00
2018-08-04T21:02:01.705Z,22.90
2018-08-04T21:04:31.352Z,22.90
2018-08-04T21:06:59.937Z,22.80
2018-08-04T21:09:28.209Z,22.80
2018-08-04T21:11:56.795Z,22.80
2018-08-04T21:14:26.029Z,22.80
2018-08-04T21:16:55.209Z,22.70
2018-08-04T21:19:24.108Z,22.70
2018-08-04T21:21:52.320Z,22.70
2018-08-04T21:24:22.677Z,22.70
2018-08-04T21:26:51.764Z,22.70
2018-08-04T21:29:20.272Z,22.70
2018-08-04T21:31:48.569Z,22.70
2018-08-04T21:34:16.777Z,22.80
2018-08-04T21:36:45.027Z,22.80
2018-08-04T21:39:18.504Z,22.80
2018-08-04T21:41:47.101Z,22.70
2018-08-04T21:44:15.446Z,22.70
2018-08-04T21:46:47.453Z,22.60
2018-08-04T21:49:15.817Z,22.60
2018-08-04T21:51:47.070Z,22.50
2018-08-04T21:54:19.917Z,22.50
2018-08-04T21:56:44.823Z,22.50
2018-08-04T21:59:13.124Z,22.60
2018-08-04T22:04:13.645Z,22.60
2018-08-04T22:06:52.156Z,22.60
2018-08-04T22:09:23.378Z,22.60
2018-08-04T22:11:51.587Z,22.60
2018-08-04T22:14:19.772Z,22.50
2018-08-04T22:16:48.064Z,22.50
2018-08-04T22:19:16.306Z,22.50
2018-08-04T22:21:44.526Z,22.40
2018-08-04T22:24:12.735Z,22.40
2018-08-04T22:26:40.992Z,22.30
2018-08-04T22:29:09.255Z,22.30
2018-08-04T22:31:37.620Z,22.20
2018-08-04T22:34:06.008Z,22.20
2018-08-04T22:36:34.301Z,22.10
2018-08-04T22:39:02.511Z,22.00
2018-08-04T22:41:30.758Z,22.00
2018-08-04T22:43:58.993Z,22.00
2018-08-04T22:46:27.224Z,21.90
2018-08-04T22:48:55.551Z,21.90
2018-08-04T22:51:29.621Z,21.90
2018-08-04T22:53:57.852Z,21.80
2018-08-04T22:56:26.381Z,21.90
2018-08-04T22:58:54.631Z,21.80
2018-08-04T23:01:22.912Z,21.80
2018-08-04T23:03:51.168Z,21.80
2018-08-04T23:06:19.421Z,21.80
2018-08-04T23:08:47.616Z,21.70
2018-08-04T23:11:15.872Z,21.70
2018-08-04T23:13:44.090Z,21.60
2018-08-04T23:16:12.287Z,21.60
2018-08-04T23:18:40.485Z,21.50
2018-08-04T23:21:08.706Z,21.50
2018-08-04T23:23:37.515Z,21.50
2018-08-04T23:26:05.899Z,21.40
2018-08-04T23:28:34.121Z,21.40
2018-08-04T23:31:02.365Z,21.40
2018-08-04T23:33:30.606Z,21.40
2018-08-04T23:35:58.865Z,21.40
2018-08-04T23:38:27.061Z,21.40
2018-08-04T23:40:55.433Z,21.40
2018-08-04T23:43:23.662Z,21.40
2018-08-04T23:45:51.879Z,21.40
2018-08-04T23:48:20.096Z,21.40
2018-08-04T23:50:48.361Z,21.30
2018-08-04T23:53:16.542Z,21.30
2018-08-04T23:55:44.870Z,21.30
2018-08-04T23:58:13.046Z,21.30
